sensor_id;sensor_type;location;lat;lon;timestamp;P1;durP1;ratioP1;P2;durP2;ratioP2
38226;SDS011;24026;49.446;8.576;2022-10-14T00:00:18;127.45;;;115.20;;
38226;SDS011;24026;49.446;8.576;2022-10-14T00:02:38;128.52;;;116.22;;
38226;SDS011;24026;49.446;8.576;2022-10-14T00:04:59;127.28;;;114.95;;
38226;SDS011;24026;49.446;8.576;2022-10-14T00:07:19;128.18;;;115.82;;
38226;SDS011;24026;49.446;8.576;2022-10-14T00:09:40;128.48;;;116.15;;
38226;SDS011;24026;49.446;8.576;2022-10-14T00:12:01;128.77;;;116.40;;
38226;SDS011;24026;49.446;8.576;2022-10-14T00:14:21;129.02;;;116.60;;
38226;SDS011;24026;49.446;8.576;2022-10-14T00:16:43;128.25;;;115.95;;
38226;SDS011;24026;49.446;8.576;2022-10-14T00:19:04;127.53;;;115.10;;
38226;SDS011;24026;49.446;8.576;2022-10-14T00:21:25;129.52;;;116.88;;
38226;SDS011;24026;49.446;8.576;2022-10-14T00:23:47;128.27;;;116.00;;
38226;SDS011;24026;49.446;8.576;2022-10-14T00:26:18;126.90;;;114.63;;
38226;SDS011;24026;49.446;8.576;2022-10-14T00:28:41;128.68;;;116.20;;
38226;SDS011;24026;49.446;8.576;2022-10-14T00:31:01;127.90;;;115.60;;
38226;SDS011;24026;49.446;8.576;2022-10-14T00:33:21;127.93;;;115.70;;
38226;SDS011;24026;49.446;8.576;2022-10-14T00:35:43;127.63;;;115.38;;
38226;SDS011;24026;49.446;8.576;2022-10-14T00:38:03;127.57;;;115.15;;
38226;SDS011;24026;49.446;8.576;2022-10-14T00:40:26;127.13;;;114.93;;
38226;SDS011;24026;49.446;8.576;2022-10-14T00:42:47;126.93;;;114.53;;
38226;SDS011;24026;49.446;8.576;2022-10-14T00:45:12;127.32;;;115.07;;
38226;SDS011;24026;49.446;8.576;2022-10-14T00:47:36;127.22;;;114.82;;
38226;SDS011;24026;49.446;8.576;2022-10-14T00:49:57;127.90;;;115.60;;
38226;SDS011;24026;49.446;8.576;2022-10-14T00:52:19;127.90;;;115.63;;
38226;SDS011;24026;49.446;8.576;2022-10-14T00:54:44;127.85;;;115.25;;
38226;SDS011;24026;49.446;8.576;2022-10-14T00:57:10;127.75;;;115.35;;
38226;SDS011;24026;49.446;8.576;2022-10-14T00:59:31;127.13;;;114.80;;
38226;SDS011;24026;49.446;8.576;2022-10-14T01:01:52;128.65;;;116.10;;
38226;SDS011;24026;49.446;8.576;2022-10-14T01:04:13;128.10;;;115.70;;
38226;SDS011;24026;49.446;8.576;2022-10-14T01:09:28;126.35;;;114.07;;
38226;SDS011;24026;49.446;8.576;2022-10-14T01:14:37;125.93;;;113.82;;
38226;SDS011;24026;49.446;8.576;2022-10-14T01:17:17;126.68;;;114.45;;
38226;SDS011;24026;49.446;8.576;2022-10-14T01:22:36;126.10;;;113.80;;
38226;SDS011;24026;49.446;8.576;2022-10-14T01:28:16;127.32;;;114.93;;
38226;SDS011;24026;49.446;8.576;2022-10-14T01:30:43;126.45;;;114.15;;
38226;SDS011;24026;49.446;8.576;2022-10-14T01:33:11;126.75;;;114.47;;
38226;SDS011;24026;49.446;8.576;2022-10-14T01:36:09;127.20;;;114.93;;
38226;SDS011;24026;49.446;8.576;2022-10-14T01:41:14;126.78;;;114.50;;
38226;SDS011;24026;49.446;8.576;2022-10-14T01:43:39;127.45;;;115.22;;
38226;SDS011;24026;49.446;8.576;2022-10-14T01:46:03;127.45;;;115.13;;
38226;SDS011;24026;49.446;8.576;2022-10-14T01:48:27;128.18;;;115.72;;
38226;SDS011;24026;49.446;8.576;2022-10-14T01:50:52;127.03;;;114.55;;
38226;SDS011;24026;49.446;8.576;2022-10-14T01:53:20;125.97;;;113.82;;
38226;SDS011;24026;49.446;8.576;2022-10-14T01:55:45;127.82;;;115.53;;
38226;SDS011;24026;49.446;8.576;2022-10-14T01:58:07;126.68;;;114.45;;
38226;SDS011;24026;49.446;8.576;2022-10-14T02:00:31;128.07;;;115.65;;
38226;SDS011;24026;49.446;8.576;2022-10-14T02:02:52;128.02;;;115.53;;
38226;SDS011;24026;49.446;8.576;2022-10-14T02:10:44;125.97;;;113.57;;
38226;SDS011;24026;49.446;8.576;2022-10-14T02:16:01;126.20;;;113.90;;
38226;SDS011;24026;49.446;8.576;2022-10-14T02:18:27;126.18;;;113.88;;
38226;SDS011;24026;49.446;8.576;2022-10-14T02:23:21;126.13;;;113.85;;
38226;SDS011;24026;49.446;8.576;2022-10-14T02:25:46;126.25;;;113.85;;
38226;SDS011;24026;49.446;8.576;2022-10-14T02:28:08;126.70;;;114.32;;
38226;SDS011;24026;49.446;8.576;2022-10-14T02:30:31;126.78;;;114.45;;
38226;SDS011;24026;49.446;8.576;2022-10-14T02:32:58;125.75;;;113.53;;
38226;SDS011;24026;49.446;8.576;2022-10-14T02:35:20;127.15;;;114.57;;
38226;SDS011;24026;49.446;8.576;2022-10-14T02:37:43;126.47;;;114.22;;
38226;SDS011;24026;49.446;8.576;2022-10-14T02:40:10;127.10;;;114.60;;
38226;SDS011;24026;49.446;8.576;2022-10-14T02:42:36;127.72;;;115.30;;
38226;SDS011;24026;49.446;8.576;2022-10-14T02:44:59;126.88;;;114.55;;
38226;SDS011;24026;49.446;8.576;2022-10-14T02:47:21;127.07;;;114.78;;
38226;SDS011;24026;49.446;8.576;2022-10-14T02:49:42;126.28;;;113.88;;
38226;SDS011;24026;49.446;8.576;2022-10-14T02:52:02;126.82;;;114.35;;
38226;SDS011;24026;49.446;8.576;2022-10-14T02:54:22;126.90;;;114.60;;
38226;SDS011;24026;49.446;8.576;2022-10-14T02:56:43;127.43;;;115.13;;
38226;SDS011;24026;49.446;8.576;2022-10-14T02:59:03;126.55;;;114.20;;
38226;SDS011;24026;49.446;8.576;2022-10-14T03:01:24;125.68;;;113.57;;
38226;SDS011;24026;49.446;8.576;2022-10-14T03:03:44;127.00;;;114.72;;
38226;SDS011;24026;49.446;8.576;2022-10-14T03:06:05;126.75;;;114.50;;
38226;SDS011;24026;49.446;8.576;2022-10-14T03:08:25;127.25;;;114.88;;
38226;SDS011;24026;49.446;8.576;2022-10-14T03:10:46;127.30;;;114.85;;
38226;SDS011;24026;49.446;8.576;2022-10-14T03:13:07;127.30;;;114.95;;
38226;SDS011;24026;49.446;8.576;2022-10-14T03:15:27;127.53;;;115.20;;
38226;SDS011;24026;49.446;8.576;2022-10-14T03:17:47;127.20;;;114.82;;
38226;SDS011;24026;49.446;8.576;2022-10-14T03:20:09;127.65;;;115.13;;
38226;SDS011;24026;49.446;8.576;2022-10-14T03:22:29;126.82;;;114.50;;
38226;SDS011;24026;49.446;8.576;2022-10-14T03:24:50;128.57;;;115.97;;
38226;SDS011;24026;49.446;8.576;2022-10-14T03:27:10;128.25;;;115.65;;
38226;SDS011;24026;49.446;8.576;2022-10-14T03:29:31;128.02;;;115.53;;
38226;SDS011;24026;49.446;8.576;2022-10-14T03:31:51;128.95;;;116.53;;
38226;SDS011;24026;49.446;8.576;2022-10-14T03:34:11;127.72;;;115.15;;
38226;SDS011;24026;49.446;8.576;2022-10-14T03:36:32;128.07;;;115.60;;
38226;SDS011;24026;49.446;8.576;2022-10-14T03:38:52;128.10;;;115.63;;
38226;SDS011;24026;49.446;8.576;2022-10-14T03:41:12;128.68;;;116.20;;
38226;SDS011;24026;49.446;8.576;2022-10-14T03:43:33;127.38;;;115.07;;
38226;SDS011;24026;49.446;8.576;2022-10-14T03:45:53;128.00;;;115.63;;
38226;SDS011;24026;49.446;8.576;2022-10-14T03:48:14;128.18;;;115.78;;
38226;SDS011;24026;49.446;8.576;2022-10-14T03:50:34;128.07;;;115.57;;
38226;SDS011;24026;49.446;8.576;2022-10-14T03:52:55;127.90;;;115.57;;
38226;SDS011;24026;49.446;8.576;2022-10-14T03:55:15;127.57;;;115.20;;
38226;SDS011;24026;49.446;8.576;2022-10-14T03:57:35;128.52;;;116.03;;
38226;SDS011;24026;49.446;8.576;2022-10-14T03:59:56;128.27;;;115.70;;
38226;SDS011;24026;49.446;8.576;2022-10-14T04:02:16;127.22;;;114.90;;
38226;SDS011;24026;49.446;8.576;2022-10-14T04:04:36;126.97;;;114.68;;
38226;SDS011;24026;49.446;8.576;2022-10-14T04:06:57;127.00;;;114.60;;
38226;SDS011;24026;49.446;8.576;2022-10-14T04:09:17;128.45;;;116.07;;
38226;SDS011;24026;49.446;8.576;2022-10-14T04:11:38;127.57;;;115.15;;
38226;SDS011;24026;49.446;8.576;2022-10-14T04:13:58;127.75;;;115.28;;
38226;SDS011;24026;49.446;8.576;2022-10-14T04:16:19;127.72;;;115.22;;
38226;SDS011;24026;49.446;8.576;2022-10-14T04:18:39;128.35;;;115.72;;
38226;SDS011;24026;49.446;8.576;2022-10-14T04:21:00;127.93;;;115.35;;
38226;SDS011;24026;49.446;8.576;2022-10-14T04:23:22;128.23;;;115.72;;
38226;SDS011;24026;49.446;8.576;2022-10-14T04:25:42;129.13;;;116.22;;
38226;SDS011;24026;49.446;8.576;2022-10-14T04:28:02;128.45;;;115.97;;
38226;SDS011;24026;49.446;8.576;2022-10-14T04:30:23;128.95;;;116.35;;
38226;SDS011;24026;49.446;8.576;2022-10-14T04:32:43;128.95;;;116.35;;
38226;SDS011;24026;49.446;8.576;2022-10-14T04:35:05;127.60;;;115.10;;
38226;SDS011;24026;49.446;8.576;2022-10-14T04:37:25;128.63;;;115.93;;
38226;SDS011;24026;49.446;8.576;2022-10-14T04:39:46;127.90;;;115.35;;
38226;SDS011;24026;49.446;8.576;2022-10-14T04:42:08;130.10;;;117.28;;
38226;SDS011;24026;49.446;8.576;2022-10-14T04:44:29;127.13;;;114.53;;
38226;SDS011;24026;49.446;8.576;2022-10-14T04:46:51;129.45;;;116.82;;
38226;SDS011;24026;49.446;8.576;2022-10-14T04:49:12;131.20;;;118.30;;
38226;SDS011;24026;49.446;8.576;2022-10-14T04:51:36;131.07;;;118.15;;
38226;SDS011;24026;49.446;8.576;2022-10-14T04:53:58;129.93;;;117.15;;
38226;SDS011;24026;49.446;8.576;2022-10-14T04:56:19;129.88;;;117.20;;
38226;SDS011;24026;49.446;8.576;2022-10-14T04:58:39;128.50;;;116.05;;
38226;SDS011;24026;49.446;8.576;2022-10-14T05:01:00;127.07;;;114.78;;
38226;SDS011;24026;49.446;8.576;2022-10-14T05:03:22;128.32;;;115.88;;
38226;SDS011;24026;49.446;8.576;2022-10-14T05:05:43;128.20;;;115.85;;
38226;SDS011;24026;49.446;8.576;2022-10-14T05:08:04;129.38;;;116.88;;
38226;SDS011;24026;49.446;8.576;2022-10-14T05:10:27;128.85;;;116.45;;
38226;SDS011;24026;49.446;8.576;2022-10-14T05:12:50;128.20;;;115.75;;
38226;SDS011;24026;49.446;8.576;2022-10-14T05:15:12;129.38;;;116.85;;
38226;SDS011;24026;49.446;8.576;2022-10-14T05:17:34;128.48;;;116.03;;
38226;SDS011;24026;49.446;8.576;2022-10-14T05:19:57;128.65;;;116.10;;
38226;SDS011;24026;49.446;8.576;2022-10-14T05:22:18;129.80;;;117.32;;
38226;SDS011;24026;49.446;8.576;2022-10-14T05:24:40;130.18;;;117.45;;
38226;SDS011;24026;49.446;8.576;2022-10-14T05:27:01;129.57;;;117.03;;
38226;SDS011;24026;49.446;8.576;2022-10-14T05:29:24;129.77;;;117.32;;
38226;SDS011;24026;49.446;8.576;2022-10-14T05:31:45;129.35;;;116.85;;
38226;SDS011;24026;49.446;8.576;2022-10-14T05:34:06;131.70;;;118.90;;
38226;SDS011;24026;49.446;8.576;2022-10-14T05:36:27;133.15;;;120.00;;
38226;SDS011;24026;49.446;8.576;2022-10-14T05:38:49;132.02;;;119.35;;
38226;SDS011;24026;49.446;8.576;2022-10-14T05:41:11;134.75;;;121.10;;
38226;SDS011;24026;49.446;8.576;2022-10-14T05:43:32;136.70;;;122.47;;
38226;SDS011;24026;49.446;8.576;2022-10-14T05:45:54;135.55;;;121.82;;
38226;SDS011;24026;49.446;8.576;2022-10-14T05:48:16;135.30;;;121.85;;
38226;SDS011;24026;49.446;8.576;2022-10-14T05:50:38;139.48;;;125.70;;
38226;SDS011;24026;49.446;8.576;2022-10-14T05:53:00;141.63;;;127.22;;
38226;SDS011;24026;49.446;8.576;2022-10-14T05:55:21;141.38;;;127.03;;
38226;SDS011;24026;49.446;8.576;2022-10-14T05:57:42;150.73;;;126.35;;
38226;SDS011;24026;49.446;8.576;2022-10-14T06:00:05;141.65;;;127.28;;
38226;SDS011;24026;49.446;8.576;2022-10-14T06:02:26;141.23;;;126.88;;
38226;SDS011;24026;49.446;8.576;2022-10-14T06:04:46;142.57;;;127.07;;
38226;SDS011;24026;49.446;8.576;2022-10-14T06:07:11;140.38;;;125.53;;
38226;SDS011;24026;49.446;8.576;2022-10-14T06:09:33;139.63;;;125.28;;
38226;SDS011;24026;49.446;8.576;2022-10-14T06:11:54;140.95;;;126.32;;
38226;SDS011;24026;49.446;8.576;2022-10-14T06:14:15;137.77;;;123.20;;
38226;SDS011;24026;49.446;8.576;2022-10-14T06:16:37;141.77;;;126.32;;
38226;SDS011;24026;49.446;8.576;2022-10-14T06:18:57;138.77;;;124.63;;
38226;SDS011;24026;49.446;8.576;2022-10-14T06:21:19;140.00;;;125.78;;
38226;SDS011;24026;49.446;8.576;2022-10-14T06:23:39;139.27;;;124.80;;
38226;SDS011;24026;49.446;8.576;2022-10-14T06:26:05;137.80;;;123.95;;
38226;SDS011;24026;49.446;8.576;2022-10-14T06:28:32;138.63;;;124.30;;
38226;SDS011;24026;49.446;8.576;2022-10-14T06:30:53;137.30;;;123.35;;
38226;SDS011;24026;49.446;8.576;2022-10-14T06:33:14;138.68;;;124.45;;
38226;SDS011;24026;49.446;8.576;2022-10-14T06:35:38;136.68;;;122.60;;
38226;SDS011;24026;49.446;8.576;2022-10-14T06:38:00;137.50;;;123.50;;
38226;SDS011;24026;49.446;8.576;2022-10-14T06:40:22;137.82;;;124.03;;
38226;SDS011;24026;49.446;8.576;2022-10-14T06:42:42;133.45;;;119.75;;
38226;SDS011;24026;49.446;8.576;2022-10-14T06:45:03;132.63;;;119.30;;
38226;SDS011;24026;49.446;8.576;2022-10-14T06:47:25;133.02;;;119.72;;
38226;SDS011;24026;49.446;8.576;2022-10-14T06:49:47;134.93;;;121.03;;
38226;SDS011;24026;49.446;8.576;2022-10-14T06:52:10;133.15;;;119.43;;
38226;SDS011;24026;49.446;8.576;2022-10-14T06:54:31;132.25;;;118.80;;
38226;SDS011;24026;49.446;8.576;2022-10-14T06:56:52;137.10;;;122.75;;
38226;SDS011;24026;49.446;8.576;2022-10-14T06:59:13;142.05;;;127.68;;
38226;SDS011;24026;49.446;8.576;2022-10-14T07:01:35;135.95;;;121.93;;
38226;SDS011;24026;49.446;8.576;2022-10-14T07:03:55;143.90;;;129.25;;
38226;SDS011;24026;49.446;8.576;2022-10-14T07:06:15;138.70;;;124.82;;
38226;SDS011;24026;49.446;8.576;2022-10-14T07:08:36;136.23;;;122.63;;
38226;SDS011;24026;49.446;8.576;2022-10-14T07:10:57;139.40;;;125.65;;
38226;SDS011;24026;49.446;8.576;2022-10-14T07:13:20;142.27;;;128.07;;
38226;SDS011;24026;49.446;8.576;2022-10-14T07:15:42;145.85;;;131.35;;
38226;SDS011;24026;49.446;8.576;2022-10-14T07:18:02;147.95;;;133.48;;
38226;SDS011;24026;49.446;8.576;2022-10-14T07:20:27;151.23;;;136.13;;
38226;SDS011;24026;49.446;8.576;2022-10-14T07:22:53;143.27;;;129.27;;
38226;SDS011;24026;49.446;8.576;2022-10-14T07:25:16;144.88;;;130.88;;
38226;SDS011;24026;49.446;8.576;2022-10-14T07:27:37;146.95;;;132.50;;
38226;SDS011;24026;49.446;8.576;2022-10-14T07:29:59;140.85;;;127.03;;
38226;SDS011;24026;49.446;8.576;2022-10-14T07:32:20;142.32;;;128.10;;
38226;SDS011;24026;49.446;8.576;2022-10-14T07:34:42;142.48;;;128.20;;
38226;SDS011;24026;49.446;8.576;2022-10-14T07:37:11;143.07;;;129.02;;
38226;SDS011;24026;49.446;8.576;2022-10-14T07:39:49;141.65;;;127.65;;
38226;SDS011;24026;49.446;8.576;2022-10-14T07:42:10;144.13;;;129.80;;
38226;SDS011;24026;49.446;8.576;2022-10-14T07:44:34;144.10;;;129.77;;
38226;SDS011;24026;49.446;8.576;2022-10-14T07:46:56;144.93;;;130.43;;
38226;SDS011;24026;49.446;8.576;2022-10-14T07:49:19;147.63;;;132.38;;
38226;SDS011;24026;49.446;8.576;2022-10-14T07:51:40;146.30;;;131.32;;
38226;SDS011;24026;49.446;8.576;2022-10-14T07:54:02;145.10;;;129.88;;
38226;SDS011;24026;49.446;8.576;2022-10-14T07:56:33;150.35;;;133.70;;
38226;SDS011;24026;49.446;8.576;2022-10-14T07:59:00;145.50;;;130.40;;
38226;SDS011;24026;49.446;8.576;2022-10-14T08:01:21;143.90;;;128.98;;
38226;SDS011;24026;49.446;8.576;2022-10-14T08:03:44;143.60;;;129.05;;
38226;SDS011;24026;49.446;8.576;2022-10-14T08:06:07;142.70;;;128.10;;
38226;SDS011;24026;49.446;8.576;2022-10-14T08:11:16;140.45;;;125.40;;
38226;SDS011;24026;49.446;8.576;2022-10-14T08:13:41;146.70;;;131.23;;
38226;SDS011;24026;49.446;8.576;2022-10-14T08:16:02;146.35;;;130.50;;
38226;SDS011;24026;49.446;8.576;2022-10-14T08:18:36;143.25;;;128.70;;
38226;SDS011;24026;49.446;8.576;2022-10-14T08:20:59;141.88;;;127.63;;
38226;SDS011;24026;49.446;8.576;2022-10-14T08:23:23;142.90;;;128.30;;
38226;SDS011;24026;49.446;8.576;2022-10-14T08:25:46;140.85;;;126.80;;
38226;SDS011;24026;49.446;8.576;2022-10-14T08:28:09;140.95;;;126.90;;
38226;SDS011;24026;49.446;8.576;2022-10-14T08:30:32;141.40;;;127.27;;
38226;SDS011;24026;49.446;8.576;2022-10-14T08:32:55;140.40;;;126.38;;
38226;SDS011;24026;49.446;8.576;2022-10-14T08:35:16;139.32;;;125.40;;
38226;SDS011;24026;49.446;8.576;2022-10-14T08:37:38;140.48;;;126.68;;
38226;SDS011;24026;49.446;8.576;2022-10-14T08:39:58;139.18;;;125.55;;
38226;SDS011;24026;49.446;8.576;2022-10-14T08:42:25;139.23;;;125.60;;
38226;SDS011;24026;49.446;8.576;2022-10-14T08:45:17;139.05;;;125.40;;
38226;SDS011;24026;49.446;8.576;2022-10-14T08:47:59;137.98;;;123.97;;
38226;SDS011;24026;49.446;8.576;2022-10-14T08:53:19;140.57;;;126.70;;
38226;SDS011;24026;49.446;8.576;2022-10-14T08:55:47;140.77;;;126.95;;
38226;SDS011;24026;49.446;8.576;2022-10-14T09:00:52;144.77;;;129.80;;
38226;SDS011;24026;49.446;8.576;2022-10-14T09:03:15;140.40;;;126.20;;
38226;SDS011;24026;49.446;8.576;2022-10-14T09:05:58;139.73;;;125.03;;
38226;SDS011;24026;49.446;8.576;2022-10-14T09:08:32;136.27;;;122.20;;
38226;SDS011;24026;49.446;8.576;2022-10-14T09:10:57;135.70;;;121.85;;
38226;SDS011;24026;49.446;8.576;2022-10-14T09:13:34;134.52;;;120.93;;
38226;SDS011;24026;49.446;8.576;2022-10-14T09:15:59;132.77;;;119.35;;
38226;SDS011;24026;49.446;8.576;2022-10-14T09:18:31;132.35;;;119.15;;
38226;SDS011;24026;49.446;8.576;2022-10-14T09:20:57;132.07;;;118.88;;
38226;SDS011;24026;49.446;8.576;2022-10-14T09:23:23;133.50;;;119.93;;
38226;SDS011;24026;49.446;8.576;2022-10-14T09:25:59;181.27;;;163.57;;
38226;SDS011;24026;49.446;8.576;2022-10-14T09:28:32;142.98;;;128.73;;
38226;SDS011;24026;49.446;8.576;2022-10-14T09:31:01;140.70;;;126.80;;
38226;SDS011;24026;49.446;8.576;2022-10-14T09:33:22;140.20;;;126.43;;
38226;SDS011;24026;49.446;8.576;2022-10-14T09:38:10;132.25;;;119.05;;
38226;SDS011;24026;49.446;8.576;2022-10-14T09:40:37;133.05;;;119.93;;
38226;SDS011;24026;49.446;8.576;2022-10-14T09:45:49;135.50;;;122.10;;
38226;SDS011;24026;49.446;8.576;2022-10-14T09:48:33;135.05;;;121.72;;
38226;SDS011;24026;49.446;8.576;2022-10-14T09:51:50;133.98;;;120.68;;
38226;SDS011;24026;49.446;8.576;2022-10-14T09:53:55;134.20;;;120.65;;
38226;SDS011;24026;49.446;8.576;2022-10-14T09:56:36;137.85;;;124.25;;
38226;SDS011;24026;49.446;8.576;2022-10-14T09:59:01;136.45;;;122.47;;
38226;SDS011;24026;49.446;8.576;2022-10-14T10:01:40;142.77;;;128.82;;
38226;SDS011;24026;49.446;8.576;2022-10-14T10:07:04;139.13;;;124.90;;
38226;SDS011;24026;49.446;8.576;2022-10-14T10:09:44;137.43;;;123.55;;
38226;SDS011;24026;49.446;8.576;2022-10-14T10:14:43;134.88;;;121.15;;
38226;SDS011;24026;49.446;8.576;2022-10-14T10:17:19;138.80;;;124.82;;
38226;SDS011;24026;49.446;8.576;2022-10-14T10:19:51;136.40;;;122.47;;
38226;SDS011;24026;49.446;8.576;2022-10-14T10:22:54;137.75;;;123.85;;
38226;SDS011;24026;49.446;8.576;2022-10-14T10:25:46;136.55;;;122.97;;
38226;SDS011;24026;49.446;8.576;2022-10-14T10:28:23;137.45;;;123.65;;
38226;SDS011;24026;49.446;8.576;2022-10-14T10:31:12;135.00;;;121.32;;
38226;SDS011;24026;49.446;8.576;2022-10-14T10:40:46;136.43;;;122.43;;
38226;SDS011;24026;49.446;8.576;2022-10-14T10:48:53;132.30;;;119.18;;
38226;SDS011;24026;49.446;8.576;2022-10-14T10:51:29;133.32;;;120.25;;
38226;SDS011;24026;49.446;8.576;2022-10-14T10:56:58;135.55;;;122.30;;
38226;SDS011;24026;49.446;8.576;2022-10-14T10:59:47;138.63;;;125.30;;
38226;SDS011;24026;49.446;8.576;2022-10-14T11:02:31;138.52;;;125.03;;
38226;SDS011;24026;49.446;8.576;2022-10-14T11:05:08;137.57;;;124.15;;
38226;SDS011;24026;49.446;8.576;2022-10-14T11:10:47;137.73;;;124.28;;
38226;SDS011;24026;49.446;8.576;2022-10-14T11:16:09;136.70;;;123.68;;
38226;SDS011;24026;49.446;8.576;2022-10-14T11:18:47;136.88;;;123.68;;
38226;SDS011;24026;49.446;8.576;2022-10-14T11:21:56;136.98;;;123.68;;
38226;SDS011;24026;49.446;8.576;2022-10-14T11:24:18;136.68;;;123.28;;
38226;SDS011;24026;49.446;8.576;2022-10-14T11:34:45;135.13;;;122.20;;
38226;SDS011;24026;49.446;8.576;2022-10-14T11:37:37;133.50;;;120.22;;
38226;SDS011;24026;49.446;8.576;2022-10-14T11:54:29;132.95;;;119.97;;
38226;SDS011;24026;49.446;8.576;2022-10-14T12:01:47;135.48;;;122.47;;
38226;SDS011;24026;49.446;8.576;2022-10-14T12:04:30;134.27;;;121.05;;
38226;SDS011;24026;49.446;8.576;2022-10-14T12:09:51;134.73;;;121.53;;
38226;SDS011;24026;49.446;8.576;2022-10-14T12:12:18;135.32;;;122.03;;
38226;SDS011;24026;49.446;8.576;2022-10-14T12:14:42;136.02;;;122.82;;
38226;SDS011;24026;49.446;8.576;2022-10-14T12:17:14;137.23;;;123.35;;
38226;SDS011;24026;49.446;8.576;2022-10-14T12:19:36;136.30;;;122.93;;
38226;SDS011;24026;49.446;8.576;2022-10-14T12:22:08;137.18;;;123.63;;
38226;SDS011;24026;49.446;8.576;2022-10-14T12:24:41;137.77;;;124.05;;
38226;SDS011;24026;49.446;8.576;2022-10-14T12:27:08;139.25;;;125.18;;
38226;SDS011;24026;49.446;8.576;2022-10-14T12:29:33;148.93;;;133.02;;
38226;SDS011;24026;49.446;8.576;2022-10-14T12:34:30;149.73;;;134.35;;
38226;SDS011;24026;49.446;8.576;2022-10-14T12:36:58;152.50;;;136.07;;
38226;SDS011;24026;49.446;8.576;2022-10-14T12:39:21;150.15;;;134.55;;
38226;SDS011;24026;49.446;8.576;2022-10-14T12:42:04;151.43;;;135.23;;
38226;SDS011;24026;49.446;8.576;2022-10-14T12:47:20;154.73;;;138.32;;
38226;SDS011;24026;49.446;8.576;2022-10-14T12:52:37;156.95;;;139.70;;
38226;SDS011;24026;49.446;8.576;2022-10-14T12:54:59;162.40;;;145.32;;
38226;SDS011;24026;49.446;8.576;2022-10-14T12:59:49;161.43;;;143.93;;
38226;SDS011;24026;49.446;8.576;2022-10-14T13:02:31;160.95;;;144.02;;
38226;SDS011;24026;49.446;8.576;2022-10-14T13:04:54;162.82;;;142.68;;
38226;SDS011;24026;49.446;8.576;2022-10-14T13:09:37;156.65;;;139.63;;
38226;SDS011;24026;49.446;8.576;2022-10-14T13:14:19;155.57;;;138.98;;
38226;SDS011;24026;49.446;8.576;2022-10-14T13:19:06;156.65;;;140.38;;
38226;SDS011;24026;49.446;8.576;2022-10-14T13:21:58;155.25;;;138.77;;
38226;SDS011;24026;49.446;8.576;2022-10-14T13:24:20;156.75;;;140.18;;
38226;SDS011;24026;49.446;8.576;2022-10-14T13:32:37;156.23;;;139.82;;
38226;SDS011;24026;49.446;8.576;2022-10-14T13:38:05;159.27;;;142.75;;
38226;SDS011;24026;49.446;8.576;2022-10-14T13:40:33;160.85;;;144.07;;
38226;SDS011;24026;49.446;8.576;2022-10-14T13:43:01;164.77;;;147.00;;
38226;SDS011;24026;49.446;8.576;2022-10-14T13:45:43;162.43;;;145.73;;
38226;SDS011;24026;49.446;8.576;2022-10-14T13:48:37;166.27;;;148.63;;
38226;SDS011;24026;49.446;8.576;2022-10-14T13:53:50;167.85;;;150.10;;
38226;SDS011;24026;49.446;8.576;2022-10-14T13:56:18;165.68;;;148.65;;
38226;SDS011;24026;49.446;8.576;2022-10-14T13:58:45;164.40;;;146.95;;
38226;SDS011;24026;49.446;8.576;2022-10-14T14:01:06;162.45;;;144.93;;
38226;SDS011;24026;49.446;8.576;2022-10-14T14:03:33;168.57;;;150.75;;
38226;SDS011;24026;49.446;8.576;2022-10-14T14:05:58;166.95;;;148.93;;
38226;SDS011;24026;49.446;8.576;2022-10-14T14:08:24;164.02;;;146.43;;
38226;SDS011;24026;49.446;8.576;2022-10-14T14:10:51;163.10;;;146.02;;
38226;SDS011;24026;49.446;8.576;2022-10-14T14:13:13;168.25;;;150.77;;
38226;SDS011;24026;49.446;8.576;2022-10-14T14:15:34;167.07;;;149.75;;
38226;SDS011;24026;49.446;8.576;2022-10-14T14:17:55;171.00;;;153.07;;
38226;SDS011;24026;49.446;8.576;2022-10-14T14:20:24;163.32;;;145.85;;
38226;SDS011;24026;49.446;8.576;2022-10-14T14:22:49;163.38;;;146.50;;
38226;SDS011;24026;49.446;8.576;2022-10-14T14:25:10;166.63;;;148.82;;
38226;SDS011;24026;49.446;8.576;2022-10-14T14:27:39;164.20;;;147.52;;
38226;SDS011;24026;49.446;8.576;2022-10-14T14:30:19;167.35;;;149.68;;
38226;SDS011;24026;49.446;8.576;2022-10-14T14:32:51;168.15;;;150.20;;
38226;SDS011;24026;49.446;8.576;2022-10-14T14:35:15;167.82;;;149.55;;
38226;SDS011;24026;49.446;8.576;2022-10-14T14:37:40;170.52;;;152.18;;
38226;SDS011;24026;49.446;8.576;2022-10-14T14:40:06;168.45;;;150.35;;
38226;SDS011;24026;49.446;8.576;2022-10-14T14:42:35;172.70;;;154.25;;
38226;SDS011;24026;49.446;8.576;2022-10-14T14:45:00;171.88;;;153.68;;
38226;SDS011;24026;49.446;8.576;2022-10-14T14:47:24;170.45;;;152.93;;
38226;SDS011;24026;49.446;8.576;2022-10-14T14:49:46;169.63;;;151.60;;
38226;SDS011;24026;49.446;8.576;2022-10-14T14:52:09;170.25;;;152.20;;
38226;SDS011;24026;49.446;8.576;2022-10-14T14:54:32;169.40;;;152.05;;
38226;SDS011;24026;49.446;8.576;2022-10-14T14:59:40;169.35;;;151.77;;
38226;SDS011;24026;49.446;8.576;2022-10-14T15:02:09;169.32;;;151.32;;
38226;SDS011;24026;49.446;8.576;2022-10-14T15:04:34;168.07;;;150.70;;
38226;SDS011;24026;49.446;8.576;2022-10-14T15:07:05;168.98;;;151.68;;
38226;SDS011;24026;49.446;8.576;2022-10-14T15:09:35;169.82;;;151.85;;
38226;SDS011;24026;49.446;8.576;2022-10-14T15:12:17;166.20;;;148.82;;
38226;SDS011;24026;49.446;8.576;2022-10-14T15:14:54;168.02;;;150.57;;
38226;SDS011;24026;49.446;8.576;2022-10-14T15:17:32;166.35;;;149.38;;
38226;SDS011;24026;49.446;8.576;2022-10-14T15:22:34;163.88;;;147.18;;
38226;SDS011;24026;49.446;8.576;2022-10-14T15:25:00;165.77;;;148.77;;
38226;SDS011;24026;49.446;8.576;2022-10-14T15:27:51;166.30;;;149.23;;
38226;SDS011;24026;49.446;8.576;2022-10-14T15:33:02;163.90;;;147.20;;
38226;SDS011;24026;49.446;8.576;2022-10-14T15:35:37;163.50;;;146.57;;
38226;SDS011;24026;49.446;8.576;2022-10-14T15:37:58;162.75;;;145.93;;
38226;SDS011;24026;49.446;8.576;2022-10-14T15:40:20;161.55;;;145.07;;
38226;SDS011;24026;49.446;8.576;2022-10-14T15:42:47;160.75;;;144.38;;
38226;SDS011;24026;49.446;8.576;2022-10-14T15:45:10;162.15;;;145.35;;
38226;SDS011;24026;49.446;8.576;2022-10-14T15:47:32;161.25;;;144.85;;
38226;SDS011;24026;49.446;8.576;2022-10-14T15:49:52;162.55;;;145.77;;
38226;SDS011;24026;49.446;8.576;2022-10-14T15:52:15;162.13;;;145.65;;
38226;SDS011;24026;49.446;8.576;2022-10-14T15:54:36;161.48;;;145.32;;
38226;SDS011;24026;49.446;8.576;2022-10-14T15:56:57;159.45;;;143.52;;
38226;SDS011;24026;49.446;8.576;2022-10-14T15:59:20;159.30;;;143.05;;